METAR Data
IDs: Format: Raw Decoded Include TAF

Data at: 1037 UTC 18 Jan 2022

KCEZ 180953Z AUTO 08005KT 10SM CLR M08/M11 A3007 RMK AO2 SLP188 T10781106
KCEZ 180853Z AUTO 05006KT 10SM CLR M09/M11 A3007 RMK AO2 SLP192 T10891106 55004
KCEZ 180753Z AUTO 00000KT 10SM CLR M07/M09 A3007 RMK AO2 SLP184 T10671089
KCEZ 180653Z AUTO 05005KT 10SM CLR M06/M09 A3007 RMK AO2 SLP185 T10611089 400721117
KCEZ 180553Z AUTO 08004KT 10SM CLR M08/M09 A3009 RMK AO2 SLP197 T10781094 10039 21078 56003
KCEZ 180453Z AUTO 07006KT 10SM CLR M06/M08 A3009 RMK AO2 SLP206 T10611083
KCEZ 180353Z AUTO 06003KT 10SM CLR M05/M08 A3009 RMK AO2 SLP215 T10501078
KCEZ 180253Z AUTO 00000KT 10SM CLR M02/M06 A3010 RMK AO2 SLP222 T10221061 53005
KCEZ 180153Z AUTO 07006KT 10SM CLR M02/M06 A3008 RMK AO2 SLP218 T10221061
KCEZ 180053Z AUTO 23003KT 10SM CLR 01/M07 A3008 RMK AO2 SLP212 T00111072
KCEZ 172353Z AUTO 00000KT 10SM CLR 04/M07 A3008 RMK AO2 SLP202 T00391067 10072 20039 58006
KCEZ 172253Z AUTO 00000KT 10SM CLR 06/M07 A3009 RMK AO2 SLP198 T00561072
KCEZ 172153Z AUTO 21006KT 10SM CLR 05/M07 A3010 RMK AO2 SLP206 T00501072
KCEZ 172053Z AUTO 22011KT 10SM CLR 05/M07 A3010 RMK AO2 SLP202 T00501072 57022
KCEZ 171953Z AUTO 20006KT 10SM CLR 06/M08 A3012 RMK AO2 SLP208 T00611078
KCEZ 171853Z AUTO 23003KT 10SM CLR 06/M13 A3015 RMK AO2 SLP218 T00561128
KCEZ 171753Z AUTO 05004KT 10SM CLR 04/M11 A3018 RMK AO2 SLP224 T00441106 10044 21117 58008
KCEZ 171653Z AUTO 00000KT 10SM CLR M01/M09 A3021 RMK AO2 SLP245 T10061089
KCEZ 171553Z AUTO 10003KT 10SM CLR M06/M09 A3021 RMK AO2 SLP255 T10561094
KCEZ 171453Z AUTO 05004KT 10SM CLR M10/M12 A3021 RMK AO2 SLP263 T11001122 53007
KCEZ 171353Z AUTO 06007KT 10SM CLR M11/M13 A3020 RMK AO2 SLP261 T11061128
KCEZ 171253Z AUTO 07003KT 10SM CLR M12/M13 A3019 RMK AO2 SLP255 T11171133
KCEZ 171153Z AUTO 00000KT 10SM CLR M11/M12 A3018 RMK AO2 SLP236 T11061122 11056 21106 56008
KCEZ 171053Z AUTO 08003KT 10SM CLR M09/M11 A3019 RMK AO2 SLP230 T10941111
KCEZ 170953Z AUTO 05004KT 10SM CLR M09/M11 A3020 RMK AO2 SLP234 T10941111
KCEZ 170853Z AUTO 07007KT 10SM CLR M09/M11 A3021 RMK AO2 SLP237 T10891106 50001
KCEZ 170753Z AUTO 06006KT 10SM CLR M09/M10 A3021 RMK AO2 SLP238 T10891100
KCEZ 170653Z AUTO 00000KT 10SM CLR M08/M09 A3022 RMK AO2 SLP238 T10781089 400781100
KCEZ 170553Z AUTO 08006KT 10SM CLR M06/M08 A3021 RMK AO2 SLP236 T10611083 10044 21061 58003
KCEZ 170453Z AUTO 07007KT 10SM CLR M05/M07 A3022 RMK AO2 SLP246 T10501072
KCEZ 170353Z AUTO 05007KT 10SM CLR M05/M07 A3022 RMK AO2 SLP259 T10501072
KCEZ 170253Z AUTO 07008KT 10SM CLR M04/M07 A3022 RMK AO2 SLP267 T10391067 50012
KCEZ 170153Z AUTO 07005KT 10SM CLR M03/M07 A3022 RMK AO2 SLP267 T10331072
KCEZ 170053Z AUTO 00000KT 10SM CLR M01/M08 A3020 RMK AO2 SLP253 T10061078
KCEZ 162353Z AUTO 22004KT 10SM CLR 05/M06 A3018 RMK AO2 SLP230 T00501061 10078 20039 56009
KCEZ 162253Z AUTO 20007KT 10SM CLR 07/M07 A3019 RMK AO2 SLP231 T00671067